Time;durP1;ratioP1;P1;durP2;ratioP2;P2;SDS_P1;SDS_P2;PMS_P1;PMS_P2;Temp;Humidity;BMP_temperature;BMP_pressure;BME280_temperature;BME280_humidity;BME280_pressure;Samples;Min_cycle;Max_cycle;Signal;HPM_P1;HPM_P2
2022/06/26 00:01:17;;;;;;;12.85;7.43;;;18.10;99.90;;;;;;5030006;28;20107;-71
2022/06/26 00:03:43;;;;;;;11.10;7.03;;;18.10;99.90;;;;;;5029147;28;20057;-71
2022/06/26 00:06:09;;;;;;;14.77;8.45;;;18.00;99.90;;;;;;5029391;28;20051;-71
2022/06/26 00:08:38;;;;;;;13.45;7.70;;;18.00;99.90;;;;;;5012137;28;20037;-71
2022/06/26 00:11:07;;;;;;;13.88;7.78;;;18.00;99.90;;;;;;5029610;28;20458;-71
2022/06/26 00:13:33;;;;;;;10.63;6.95;;;18.00;99.90;;;;;;5044665;28;20099;-71
2022/06/26 00:15:58;;;;;;;;;;;18.00;99.90;;;;;;5029887;28;20045;-71
2022/06/26 00:18:24;;;;;;;11.57;7.15;;;18.00;99.90;;;;;;5062113;28;19917;-71
2022/06/26 00:20:50;;;;;;;12.30;7.38;;;18.00;99.90;;;;;;5046805;28;20032;-71
2022/06/26 00:23:16;;;;;;;14.48;8.52;;;18.00;99.90;;;;;;5028705;28;20441;-71
2022/06/26 00:25:42;;;;;;;;;;;18.00;99.90;;;;;;5012599;28;20454;-71
2022/06/26 00:28:07;;;;;;;13.38;7.90;;;18.00;99.90;;;;;;5046918;28;19917;-71
2022/06/26 00:30:33;;;;;;;13.27;8.75;;;18.00;99.90;;;;;;5028504;28;20058;-71
2022/06/26 00:32:58;;;;;;;12.60;7.50;;;18.00;99.90;;;;;;5029536;28;20051;-71
2022/06/26 00:35:24;;;;;;;11.95;6.05;;;17.90;99.90;;;;;;5046411;28;20218;-71
2022/06/26 00:37:50;;;;;;;12.43;6.65;;;17.80;99.90;;;;;;5046310;28;20036;-71
2022/06/26 00:40:16;;;;;;;11.32;5.72;;;17.90;99.90;;;;;;5046601;28;20037;-71
2022/06/26 00:42:42;;;;;;;13.18;5.68;;;17.80;99.90;;;;;;5046118;28;20052;-71
2022/06/26 00:45:10;;;;;;;;;;;17.80;99.90;;;;;;5043771;28;20424;-71
2022/06/26 00:47:36;;;;;;;9.73;4.95;;;17.80;99.90;;;;;;5043957;28;19935;-71
2022/06/26 00:50:05;;;;;;;9.60;5.63;;;17.80;99.90;;;;;;5044696;28;20424;-71
2022/06/26 00:52:33;;;;;;;10.43;5.55;;;17.80;99.90;;;;;;5043200;28;20077;-71
2022/06/26 00:54:59;;;;;;;7.85;5.13;;;17.90;99.90;;;;;;5028539;28;20424;-71
2022/06/26 00:57:25;;;;;;;10.23;5.55;;;17.90;99.90;;;;;;5028257;28;20111;-71
2022/06/26 00:59:50;;;;;;;8.27;5.68;;;17.90;99.90;;;;;;5045357;28;20087;-71
2022/06/26 01:02:17;;;;;;;8.10;5.03;;;18.00;99.90;;;;;;5046634;28;20114;-71
2022/06/26 01:04:42;;;;;;;5.68;4.03;;;18.00;99.90;;;;;;5027545;28;20056;-72
2022/06/26 01:07:10;;;;;;;6.07;4.10;;;18.00;99.90;;;;;;5028847;28;20045;-71
2022/06/26 01:09:36;;;;;;;5.30;3.33;;;18.00;99.90;;;;;;5028240;28;20041;-71
2022/06/26 01:12:06;;;;;;;5.78;3.35;;;18.10;99.90;;;;;;5027944;28;20110;-71
2022/06/26 01:14:31;;;;;;;4.20;2.50;;;18.10;99.90;;;;;;5044405;28;20041;-71
2022/06/26 01:16:59;;;;;;;3.30;2.22;;;18.00;99.90;;;;;;5046027;28;20055;-71
2022/06/26 01:19:26;;;;;;;4.20;2.17;;;18.00;99.90;;;;;;5011889;28;20037;-71
2022/06/26 01:21:51;;;;;;;5.70;2.45;;;18.00;99.90;;;;;;5046321;28;20048;-71
2022/06/26 01:24:17;;;;;;;6.75;2.30;;;18.00;99.90;;;;;;5045618;28;20048;-72
2022/06/26 01:26:43;;;;;;;2.90;1.90;;;18.00;99.90;;;;;;5027093;28;20033;-71
2022/06/26 01:29:11;;;;;;;5.75;2.63;;;18.00;99.90;;;;;;5046402;28;20111;-71
2022/06/26 01:31:37;;;;;;;4.53;2.42;;;18.00;99.90;;;;;;5028935;28;20084;-70
2022/06/26 01:34:04;;;;;;;4.93;1.92;;;18.00;99.90;;;;;;5046100;28;20116;-71
2022/06/26 01:36:30;;;;;;;5.25;2.00;;;18.00;99.90;;;;;;5016335;28;20040;-71
2022/06/26 01:38:56;;;;;;;3.38;1.90;;;18.00;99.90;;;;;;5031968;28;20048;-71
2022/06/26 01:41:22;;;;;;;3.70;1.67;;;17.90;99.90;;;;;;5050427;28;20500;-71
2022/06/26 01:43:47;;;;;;;2.85;1.98;;;18.00;99.90;;;;;;5028673;28;20063;-70
2022/06/26 01:46:13;;;;;;;2.85;2.03;;;17.90;99.90;;;;;;5031723;28;20453;-71
2022/06/26 01:48:40;;;;;;;2.80;1.30;;;17.90;99.90;;;;;;5031955;28;20041;-71
2022/06/26 01:51:06;;;;;;;2.63;1.40;;;17.90;99.90;;;;;;5010693;28;20446;-71
2022/06/26 01:53:34;;;;;;;2.60;1.23;;;17.90;99.90;;;;;;5032360;28;20033;-71
2022/06/26 01:56:00;;;;;;;2.40;1.33;;;17.90;99.90;;;;;;5031857;28;20049;-71
2022/06/26 01:58:25;;;;;;;4.07;1.50;;;17.90;99.90;;;;;;5050131;28;20110;-71
2022/06/26 02:00:53;;;;;;;1.90;1.33;;;17.90;99.90;;;;;;5049407;28;20115;-71
2022/06/26 02:03:20;;;;;;;5.07;1.45;;;17.90;99.90;;;;;;5048249;28;20401;-71
2022/06/26 02:05:46;;;;;;;3.00;1.30;;;17.90;99.90;;;;;;5032056;28;20049;-71
2022/06/26 02:08:12;;;;;;;3.45;1.30;;;17.90;99.90;;;;;;5031121;28;20151;-71
2022/06/26 02:13:37;;;;;;;2.80;1.20;;;17.90;99.90;;;;;;5047076;28;20037;-71
2022/06/26 02:16:07;;;;;;;3.13;1.25;;;17.90;99.90;;;;;;5045096;28;20048;-71
2022/06/26 02:18:33;;;;;;;4.25;1.10;;;17.90;99.90;;;;;;5045110;28;20076;-72
2022/06/26 02:21:00;;;;;;;5.25;1.05;;;17.90;99.90;;;;;;5031094;28;20120;-70
2022/06/26 02:23:26;;;;;;;0.75;0.57;;;17.90;99.90;;;;;;5049733;28;20052;-70
2022/06/26 02:25:52;;;;;;;3.08;0.90;;;17.90;99.90;;;;;;5014549;28;20041;-71
2022/06/26 02:28:18;;;;;;;2.03;0.90;;;17.80;99.90;;;;;;5030299;28;20064;-70
2022/06/26 02:30:44;;;;;;;4.40;1.23;;;17.90;99.90;;;;;;5030590;28;20041;-71
2022/06/26 02:33:10;;;;;;;1.73;1.10;;;17.90;99.90;;;;;;5030952;28;20478;-70
2022/06/26 02:35:36;;;;;;;2.55;1.00;;;17.80;99.90;;;;;;5028093;28;20090;-70
2022/06/26 02:38:02;;;;;;;2.15;1.35;;;17.80;99.90;;;;;;5014838;28;20032;-70
2022/06/26 02:40:30;;;;;;;2.33;1.33;;;17.80;99.90;;;;;;5049892;28;20037;-70
2022/06/26 02:42:56;;;;;;;3.80;1.60;;;17.80;99.90;;;;;;5029288;28;20102;-70
2022/06/26 02:45:22;;;;;;;3.53;1.50;;;17.80;99.90;;;;;;5046923;28;20085;-71
2022/06/26 02:47:48;;;;;;;6.70;1.45;;;17.80;99.90;;;;;;5047584;28;20041;-71
2022/06/26 02:50:14;;;;;;;3.83;1.80;;;17.80;99.90;;;;;;5048358;28;20033;-70
2022/06/26 02:52:40;;;;;;;2.83;1.65;;;17.70;99.90;;;;;;5047938;28;20037;-70
2022/06/26 02:55:06;;;;;;;5.45;1.65;;;17.70;99.90;;;;;;5049336;28;20029;-70
2022/06/26 02:57:32;;;;;;;;;;;17.70;99.90;;;;;;5031547;28;20061;-70
2022/06/26 02:59:57;;;;;;;2.58;1.35;;;17.70;99.90;;;;;;5047993;28;20387;-71
2022/06/26 03:02:24;;;;;;;5.18;2.05;;;17.70;99.90;;;;;;5014002;28;20041;-70
2022/06/26 03:04:51;;;;;;;2.80;1.55;;;17.60;99.90;;;;;;5012905;28;20049;-71
2022/06/26 03:07:17;;;;;;;3.45;1.67;;;17.70;99.90;;;;;;5030586;28;20041;-70
2022/06/26 03:09:43;;;;;;;;;;;17.70;99.90;;;;;;5048385;28;20060;-70
2022/06/26 03:12:08;;;;;;;2.65;1.80;;;17.60;99.90;;;;;;5031428;28;20326;-70
2022/06/26 03:14:37;;;;;;;3.17;1.80;;;17.60;99.90;;;;;;5047216;28;20147;-71
2022/06/26 03:17:04;;;;;;;2.95;2.00;;;17.60;99.90;;;;;;5029824;28;20048;-71
2022/06/26 03:19:30;;;;;;;4.40;2.00;;;17.70;99.90;;;;;;5045948;28;20068;-71
2022/06/26 03:21:55;;;;;;;3.35;2.20;;;17.70;99.90;;;;;;5047698;28;20098;-71
2022/06/26 03:24:21;;;;;;;3.50;2.13;;;17.70;99.90;;;;;;5044723;28;20041;-71
2022/06/26 03:26:47;;;;;;;3.63;1.52;;;17.70;99.90;;;;;;5048120;28;20041;-71
2022/06/26 03:29:13;;;;;;;;;;;17.70;99.90;;;;;;5013881;28;20036;-71
2022/06/26 03:31:39;;;;;;;3.20;1.70;;;17.70;99.90;;;;;;5030615;28;20296;-71
2022/06/26 03:34:08;;;;;;;4.68;1.98;;;17.60;99.90;;;;;;5029181;28;20045;-70
2022/06/26 03:36:34;;;;;;;3.50;2.10;;;17.70;99.90;;;;;;5030355;28;20044;-71
2022/06/26 03:39:01;;;;;;;4.47;2.20;;;17.70;99.90;;;;;;5029430;28;20044;-70
2022/06/26 03:41:27;;;;;;;5.15;2.10;;;17.60;99.90;;;;;;5030173;28;20076;-71
2022/06/26 03:43:53;;;;;;;2.60;1.45;;;17.60;99.90;;;;;;5005688;28;20099;-71
2022/06/26 03:46:19;;;;;;;4.35;2.67;;;17.70;99.90;;;;;;5035327;28;20075;-71
2022/06/26 03:48:45;;;;;;;3.35;1.98;;;17.60;99.90;;;;;;5029478;28;20055;-71
2022/06/26 03:51:11;;;;;;;;;;;17.60;99.90;;;;;;5047891;28;20036;-71
2022/06/26 03:53:37;;;;;;;3.15;2.05;;;17.70;99.90;;;;;;5051737;23;19920;-70
2022/06/26 03:56:03;;;;;;;5.50;2.20;;;17.70;99.90;;;;;;5045445;28;20056;-69
2022/06/26 03:58:29;;;;;;;3.78;2.38;;;17.70;99.90;;;;;;5043440;28;20083;-70
2022/06/26 04:00:55;;;;;;;3.22;1.98;;;17.60;99.90;;;;;;5047949;28;20037;-69
2022/06/26 04:03:21;;;;;;;4.70;2.25;;;17.70;99.90;;;;;;5047250;28;20056;-70
2022/06/26 04:05:47;;;;;;;4.70;2.97;;;17.70;99.90;;;;;;5044527;28;20414;-70
2022/06/26 04:08:13;;;;;;;4.68;2.03;;;17.70;99.90;;;;;;5046158;28;20037;-69
2022/06/26 04:10:39;;;;;;;3.10;1.92;;;17.70;99.90;;;;;;5047094;28;20047;-69
2022/06/26 04:13:07;;;;;;;3.20;2.33;;;17.70;99.90;;;;;;5045096;28;20045;-69
2022/06/26 04:15:34;;;;;;;3.08;1.92;;;17.70;99.90;;;;;;5039896;28;20044;-70
2022/06/26 04:18:01;;;;;;;5.28;2.20;;;17.70;99.90;;;;;;5047694;28;20064;-70
2022/06/26 04:20:27;;;;;;;3.83;2.03;;;17.70;99.90;;;;;;5047493;28;20148;-70
2022/06/26 04:23:01;;;;;;;4.07;2.20;;;17.70;99.90;;;;;;5044610;28;20412;-70
2022/06/26 04:25:28;;;;;;;7.68;2.38;;;17.70;99.90;;;;;;5042152;28;20220;-70
2022/06/26 04:27:55;;;;;;;4.50;2.05;;;17.70;99.90;;;;;;5010246;28;20079;-70
2022/06/26 04:30:21;;;;;;;4.07;2.28;;;17.80;99.90;;;;;;5026082;28;20052;-70
2022/06/26 04:32:47;;;;;;;4.10;2.47;;;17.80;99.90;;;;;;5012870;28;20113;-70
2022/06/26 04:35:12;;;;;;;3.92;2.15;;;17.70;99.90;;;;;;5045585;28;20131;-70
2022/06/26 04:37:38;;;;;;;3.20;1.88;;;17.80;99.90;;;;;;5048516;28;20033;-71
2022/06/26 04:40:05;;;;;;;;;;;17.80;99.90;;;;;;5048975;28;20043;-70
2022/06/26 04:42:31;;;;;;;2.95;1.95;;;17.70;99.90;;;;;;5040036;28;19971;-70
2022/06/26 04:44:56;;;;;;;3.58;2.05;;;17.70;99.90;;;;;;5040939;28;20079;-70
2022/06/26 04:47:22;;;;;;;3.40;1.90;;;17.70;99.90;;;;;;5047191;28;20107;-70
2022/06/26 04:49:48;;;;;;;4.25;2.13;;;17.80;99.90;;;;;;5045433;28;20033;-70
2022/06/26 04:52:14;;;;;;;3.78;2.35;;;17.80;99.90;;;;;;5046858;28;20116;-70
2022/06/26 04:54:41;;;;;;;3.08;2.13;;;17.80;99.90;;;;;;5047323;28;20048;-71
2022/06/26 04:57:07;;;;;;;4.32;2.40;;;17.80;99.90;;;;;;5048819;28;20113;-70
2022/06/26 04:59:32;;;;;;;3.42;2.15;;;17.80;99.90;;;;;;5043653;28;20070;-70
2022/06/26 05:01:58;;;;;;;3.40;2.00;;;17.80;99.90;;;;;;5048449;28;20504;-70
2022/06/26 05:04:24;;;;;;;4.18;2.55;;;17.90;99.90;;;;;;5028650;28;20045;-70
2022/06/26 05:06:49;;;;;;;5.22;2.92;;;17.90;99.90;;;;;;5039558;28;20033;-70
2022/06/26 05:09:16;;;;;;;6.90;3.08;;;17.90;99.90;;;;;;5048652;28;20033;-70
2022/06/26 05:11:42;;;;;;;4.57;2.80;;;17.80;99.90;;;;;;5054301;28;20047;-70
2022/06/26 05:14:08;;;;;;;4.40;2.80;;;17.90;99.90;;;;;;5050097;28;20052;-70
2022/06/26 05:16:34;;;;;;;4.57;3.20;;;18.00;99.90;;;;;;5043407;28;20144;-70
2022/06/26 05:19:00;;;;;;;4.78;2.85;;;18.00;99.90;;;;;;5054364;28;20226;-71
2022/06/26 05:21:25;;;;;;;5.18;3.33;;;18.00;99.90;;;;;;5052624;28;20043;-70
2022/06/26 05:23:51;;;;;;;7.93;3.97;;;18.10;99.90;;;;;;5047035;28;20033;-70
2022/06/26 05:26:17;;;;;;;5.60;3.90;;;18.10;99.90;;;;;;5048766;28;20029;-70
2022/06/26 05:28:42;;;;;;;6.85;4.32;;;18.10;99.90;;;;;;5055702;28;20033;-70
2022/06/26 05:31:08;;;;;;;6.72;4.55;;;18.10;99.90;;;;;;5056780;28;20040;-70
2022/06/26 05:33:34;;;;;;;12.32;7.00;;;18.10;99.90;;;;;;5051965;28;20041;-70
2022/06/26 05:35:59;;;;;;;10.63;6.82;;;18.10;99.90;;;;;;5045993;28;20485;-70
2022/06/26 05:38:25;;;;;;;13.15;8.30;;;18.10;99.90;;;;;;5053211;28;20040;-70
2022/06/26 05:40:50;;;;;;;12.75;8.30;;;18.10;99.90;;;;;;5054758;28;20047;-70
2022/06/26 05:43:16;;;;;;;14.68;8.93;;;18.10;99.90;;;;;;5048489;28;20123;-70
2022/06/26 05:45:42;;;;;;;13.88;9.75;;;18.10;99.90;;;;;;5053264;28;20073;-71
2022/06/26 05:48:08;;;;;;;15.75;9.75;;;18.10;99.90;;;;;;5055231;28;20079;-71
2022/06/26 05:50:33;;;;;;;18.48;11.57;;;18.10;99.90;;;;;;5050131;28;20491;-70
2022/06/26 05:52:59;;;;;;;18.40;11.63;;;18.10;99.90;;;;;;5043558;28;20370;-71
2022/06/26 05:55:24;;;;;;;20.67;13.52;;;18.20;99.90;;;;;;5053471;28;20370;-71
2022/06/26 05:57:50;;;;;;;18.45;12.32;;;18.10;99.90;;;;;;5052538;28;20051;-71
2022/06/26 06:00:16;;;;;;;18.95;12.48;;;18.20;99.90;;;;;;5048563;28;20068;-71
2022/06/26 06:02:42;;;;;;;22.95;12.73;;;18.20;99.90;;;;;;5050760;28;20044;-71
2022/06/26 06:05:08;;;;;;;17.58;11.93;;;18.20;99.90;;;;;;5053991;28;20081;-71
2022/06/26 06:07:36;;;;;;;25.45;13.73;;;18.30;99.90;;;;;;5053409;28;20045;-71
2022/06/26 06:10:06;;;;;;;20.45;12.27;;;18.30;99.90;;;;;;5047481;28;20059;-71
2022/06/26 06:12:32;;;;;;;20.27;11.20;;;18.30;99.90;;;;;;5049124;28;20075;-71
2022/06/26 06:14:57;;;;;;;19.45;11.93;;;18.30;99.90;;;;;;5052526;28;20081;-71
2022/06/26 06:17:35;;;;;;;17.90;11.45;;;18.40;99.90;;;;;;5051495;28;20052;-71
2022/06/26 06:20:06;;;;;;;18.77;12.35;;;18.40;99.90;;;;;;5045323;28;20049;-71
2022/06/26 06:22:32;;;;;;;18.73;12.10;;;18.40;99.90;;;;;;5050093;28;20036;-71
2022/06/26 06:24:57;;;;;;;;;;;18.40;99.90;;;;;;5049387;28;20398;-71
2022/06/26 06:27:23;;;;;;;15.13;10.43;;;18.30;99.90;;;;;;5044283;28;19921;-71
2022/06/26 06:29:49;;;;;;;15.57;9.90;;;18.40;99.90;;;;;;5050250;28;20393;-71
2022/06/26 06:32:14;;;;;;;14.93;9.35;;;18.40;99.90;;;;;;5051526;28;20037;-71
2022/06/26 06:34:40;;;;;;;16.90;9.45;;;18.40;99.90;;;;;;5049395;28;20090;-71
2022/06/26 06:37:06;;;;;;;15.13;9.07;;;18.40;99.90;;;;;;5039964;28;20402;-71
2022/06/26 06:39:32;;;;;;;17.27;9.90;;;18.30;99.90;;;;;;5032666;28;20049;-71
2022/06/26 06:41:57;;;;;;;17.48;10.27;;;18.20;99.90;;;;;;5043917;28;20418;-71
2022/06/26 06:44:23;;;;;;;14.57;8.68;;;18.20;99.90;;;;;;5036247;28;20037;-71
2022/06/26 06:46:49;;;;;;;15.32;9.05;;;18.10;99.90;;;;;;5031815;28;20372;-71
2022/06/26 06:49:14;;;;;;;15.85;8.70;;;18.10;99.90;;;;;;5049652;28;20041;-71
2022/06/26 06:51:40;;;;;;;12.93;8.52;;;18.10;99.90;;;;;;5047581;28;20080;-71
2022/06/26 06:54:06;;;;;;;15.00;8.65;;;18.00;99.90;;;;;;5049608;28;20196;-71
2022/06/26 06:56:32;;;;;;;13.45;8.05;;;18.00;99.90;;;;;;5048586;28;20064;-71
2022/06/26 06:58:57;;;;;;;13.07;7.75;;;18.00;99.90;;;;;;5047095;28;20044;-71
2022/06/26 07:01:23;;;;;;;13.43;7.28;;;18.10;99.90;;;;;;5044821;28;20067;-71
2022/06/26 07:03:48;;;;;;;12.07;7.43;;;18.10;99.90;;;;;;5048299;28;20520;-71
2022/06/26 07:06:14;;;;;;;9.48;6.50;;;18.20;99.90;;;;;;5048266;28;20095;-71
2022/06/26 07:08:40;;;;;;;12.07;7.25;;;18.20;99.90;;;;;;5044420;28;20544;-71
2022/06/26 07:11:05;;;;;;;12.65;6.60;;;18.30;99.90;;;;;;5048942;28;20370;-71
2022/06/26 07:13:31;;;;;;;9.63;6.38;;;18.30;99.90;;;;;;5049880;28;20076;-71
2022/06/26 07:15:56;;;;;;;11.18;6.70;;;18.30;99.90;;;;;;5049207;28;20120;-71
2022/06/26 07:18:24;;;;;;;8.85;6.28;;;18.40;99.90;;;;;;5044568;28;20037;-71
2022/06/26 07:20:49;;;;;;;11.88;5.80;;;18.50;99.90;;;;;;5048912;28;20456;-71
2022/06/26 07:23:15;;;;;;;9.85;5.95;;;18.60;99.90;;;;;;5048460;28;20037;-71
2022/06/26 07:25:42;;;;;;;9.38;5.72;;;18.60;99.90;;;;;;5048952;28;20049;-71
2022/06/26 07:28:08;;;;;;;7.90;5.72;;;18.60;99.90;;;;;;5046438;28;20086;-71
2022/06/26 07:30:34;;;;;;;10.93;5.30;;;18.60;99.90;;;;;;5048091;28;20044;-71
2022/06/26 07:34:12;;;;;;;;;;;18.60;99.90;;;;;;5047597;28;20071;-71
2022/06/26 07:35:55;;;;;;;8.70;4.15;;;18.60;99.90;;;;;;5045887;28;19917;-71
2022/06/26 07:38:21;;;;;;;7.00;4.25;;;18.60;99.90;;;;;;5045093;28;20087;-71
2022/06/26 07:40:47;;;;;;;9.80;4.93;;;18.60;99.90;;;;;;5041450;28;20068;-71
2022/06/26 07:43:12;;;;;;;8.55;4.53;;;18.60;99.90;;;;;;5028760;28;20045;-71
2022/06/26 07:45:39;;;;;;;6.55;4.18;;;18.60;99.90;;;;;;5037676;28;20069;-71
2022/06/26 07:48:05;;;;;;;8.80;4.88;;;18.70;99.90;;;;;;5047788;28;20130;-71
2022/06/26 07:50:31;;;;;;;;;;;18.60;99.90;;;;;;5047113;28;20057;-71
2022/06/26 07:52:56;;;;;;;6.68;4.20;;;18.60;99.90;;;;;;5047878;28;20361;-71
2022/06/26 07:55:22;;;;;;;8.85;5.03;;;18.70;99.90;;;;;;5048689;28;20087;-71
2022/06/26 07:57:48;;;;;;;8.65;5.75;;;18.80;99.90;;;;;;5047559;28;20504;-71
2022/06/26 08:00:13;;;;;;;11.75;6.50;;;18.90;99.90;;;;;;5030713;28;20041;-71
2022/06/26 08:02:39;;;;;;;10.73;6.30;;;19.00;99.90;;;;;;5046360;28;20291;-71
2022/06/26 08:05:06;;;;;;;9.15;6.03;;;19.00;99.90;;;;;;5047918;28;20036;-72
2022/06/26 08:07:32;;;;;;;9.38;5.65;;;19.10;99.90;;;;;;5043018;28;20339;-71
2022/06/26 08:09:58;;;;;;;;;;;19.00;99.90;;;;;;5045541;28;20536;-71
2022/06/26 08:12:23;;;;;;;10.35;4.60;;;19.00;99.90;;;;;;5048140;28;19916;-71
2022/06/26 08:14:49;;;;;;;5.70;4.00;;;19.00;99.90;;;;;;5048179;28;20048;-71
2022/06/26 08:17:15;;;;;;;5.90;3.50;;;19.00;99.90;;;;;;5048480;28;20344;-71
2022/06/26 08:19:40;;;;;;;4.15;2.55;;;19.10;99.90;;;;;;5039711;28;20185;-71
2022/06/26 08:22:06;;;;;;;5.00;2.45;;;19.20;99.90;;;;;;5048394;28;20524;-71
2022/06/26 08:24:33;;;;;;;5.28;3.05;;;19.30;99.90;;;;;;5046115;28;20071;-71
2022/06/26 08:27:00;;;;;;;5.18;3.22;;;19.40;99.90;;;;;;5047582;28;20490;-72
2022/06/26 08:29:26;;;;;;;5.97;3.80;;;19.40;99.90;;;;;;5037258;28;20037;-71
2022/06/26 08:31:52;;;;;;;;;;;19.40;99.90;;;;;;5049140;28;20195;-71
2022/06/26 08:34:18;;;;;;;5.20;3.50;;;19.40;99.90;;;;;;5047363;28;19970;-71
2022/06/26 08:36:44;;;;;;;5.65;2.97;;;19.30;99.90;;;;;;5040903;28;20040;-73
2022/06/26 08:39:10;;;;;;;3.90;2.70;;;19.30;99.90;;;;;;5045706;28;20421;-73
2022/06/26 08:41:43;;;;;;;5.32;2.80;;;19.20;99.90;;;;;;5046638;28;20409;-73
2022/06/26 08:44:10;;;;;;;5.18;2.47;;;19.30;99.90;;;;;;5029770;28;20470;-73
2022/06/26 08:46:38;;;;;;;3.90;2.72;;;19.30;99.90;;;;;;5041684;28;20041;-73
2022/06/26 08:49:15;;;;;;;4.82;2.60;;;19.40;99.90;;;;;;5046894;28;20918;-73
2022/06/26 08:51:43;;;;;;;4.75;2.38;;;19.50;99.90;;;;;;5046970;28;20099;-73
2022/06/26 08:54:10;;;;;;;4.20;2.50;;;19.60;99.90;;;;;;5046142;28;20044;-71
2022/06/26 08:56:42;;;;;;;4.28;2.20;;;19.50;99.90;;;;;;5045867;28;20048;-71
2022/06/26 08:59:12;;;;;;;3.15;2.13;;;19.60;99.90;;;;;;5047204;28;20040;-71
2022/06/26 09:01:39;;;;;;;3.20;2.13;;;19.60;99.90;;;;;;5047741;28;20041;-71
2022/06/26 09:04:06;;;;;;;3.83;2.20;;;19.70;99.90;;;;;;5037724;28;20124;-73
2022/06/26 09:06:39;;;;;;;2.97;1.92;;;19.70;99.90;;;;;;5042975;28;20033;-71
2022/06/26 09:09:24;;;;;;;2.65;1.70;;;19.80;99.90;;;;;;5029177;28;20045;-71
2022/06/26 09:11:52;;;;;;;3.38;1.70;;;19.90;99.90;;;;;;5046063;28;20116;-72
2022/06/26 09:14:18;;;;;;;3.75;1.60;;;20.10;99.90;;;;;;5042779;28;20045;-71
2022/06/26 09:16:46;;;;;;;2.80;1.30;;;20.20;99.90;;;;;;5047079;28;20567;-72
2022/06/26 09:19:14;;;;;;;3.85;1.33;;;20.30;99.90;;;;;;5045490;28;20037;-72
2022/06/26 09:21:41;;;;;;;2.72;1.30;;;20.30;99.90;;;;;;5040167;28;20033;-72
2022/06/26 09:24:20;;;;;;;3.42;1.73;;;20.30;99.90;;;;;;5041925;28;20033;-72
2022/06/26 09:27:00;;;;;;;4.90;1.70;;;20.50;99.90;;;;;;5046522;28;20041;-72
2022/06/26 09:29:25;;;;;;;5.97;2.17;;;20.60;99.90;;;;;;5037355;28;20387;-72
2022/06/26 09:31:52;;;;;;;2.90;2.10;;;20.70;99.90;;;;;;5045525;28;20179;-72
2022/06/26 09:34:21;;;;;;;;;;;20.70;99.90;;;;;;5047099;28;20083;-72
2022/06/26 09:37:01;;;;;;;3.85;2.28;;;20.80;99.90;;;;;;5043336;28;20289;-72
2022/06/26 09:39:29;;;;;;;2.65;1.95;;;20.90;99.90;;;;;;5040728;28;20077;-72
2022/06/26 09:41:55;;;;;;;4.68;2.00;;;20.90;99.90;;;;;;5047273;28;20037;-72
2022/06/26 09:44:21;;;;;;;;;;;20.90;99.90;;;;;;5044959;28;20048;-72
2022/06/26 09:46:48;;;;;;;2.17;1.37;;;20.90;99.90;;;;;;5043622;28;19917;-72
2022/06/26 09:49:13;;;;;;;;;;;21.00;99.90;;;;;;5044814;28;20282;-72
2022/06/26 09:51:40;;;;;;;4.65;1.80;;;21.00;99.90;;;;;;5046264;28;19924;-72
2022/06/26 09:54:06;;;;;;;2.88;1.67;;;21.00;99.90;;;;;;5099501;22;20104;-68
2022/06/26 09:56:32;;;;;;;3.70;2.22;;;21.00;99.90;;;;;;5017149;28;20446;-69
2022/06/26 09:58:59;;;;;;;3.05;2.08;;;21.00;99.90;;;;;;5029835;28;20034;-69
2022/06/26 10:07:01;;;;;;;5.47;2.50;;;21.30;99.90;;;;;;5000967;28;20625;-69
2022/06/26 10:09:28;;;;;;;3.17;2.33;;;21.40;99.90;;;;;;5010557;28;20048;-69
2022/06/26 10:11:57;;;;;;;5.88;2.22;;;21.60;99.90;;;;;;5010481;28;20529;-69
2022/06/26 10:14:27;;;;;;;3.72;1.80;;;21.70;99.90;;;;;;5010455;28;20042;-69
2022/06/26 10:17:02;;;;;;;5.00;1.95;;;21.80;99.90;;;;;;5003636;28;20045;-69
2022/06/26 10:19:51;;;;;;;3.75;2.20;;;21.80;99.90;;;;;;5009057;28;20081;-69
2022/06/26 10:22:16;;;;;;;3.88;2.13;;;21.70;99.90;;;;;;4993065;28;20477;-69
2022/06/26 10:24:55;;;;;;;;;;;21.70;99.90;;;;;;5001898;28;20093;-69
2022/06/26 10:27:32;;;;;;;3.28;1.90;;;21.70;99.90;;;;;;5010570;28;19921;-69
2022/06/26 10:30:08;;;;;;;3.47;1.83;;;21.70;99.90;;;;;;5009408;28;20413;-69
2022/06/26 10:32:34;;;;;;;5.65;2.13;;;21.60;99.90;;;;;;5011282;28;20074;-69
2022/06/26 10:35:00;;;;;;;;;;;21.60;99.90;;;;;;5002483;28;20072;-69
2022/06/26 10:37:26;;;;;;;2.95;1.75;;;21.50;99.90;;;;;;5005821;28;20078;-69
2022/06/26 10:39:54;;;;;;;5.65;1.92;;;21.60;99.90;;;;;;5010089;28;20557;-69
2022/06/26 10:45:31;;;;;;;3.63;2.50;;;21.60;99.90;;;;;;5028148;28;20145;-68
2022/06/26 10:48:04;;;;;;;4.35;2.30;;;21.60;99.90;;;;;;5029350;28;20085;-69
2022/06/26 10:50:40;;;;;;;3.58;2.10;;;21.60;99.90;;;;;;5018584;28;20454;-68
2022/06/26 10:53:17;;;;;;;4.60;2.75;;;21.60;99.90;;;;;;5011708;28;20376;-68
2022/06/26 10:55:59;;;;;;;3.03;2.40;;;21.70;99.90;;;;;;5005816;28;20192;-69
2022/06/26 10:58:31;;;;;;;6.57;2.92;;;21.70;99.90;;;;;;5004281;28;20114;-69
2022/06/26 11:00:59;;;;;;;7.07;2.65;;;21.80;99.90;;;;;;5028656;28;20054;-69
2022/06/26 11:03:26;;;;;;;5.35;2.70;;;21.80;99.90;;;;;;5027571;28;20513;-69
2022/06/26 11:05:52;;;;;;;3.40;2.60;;;21.90;99.90;;;;;;5026079;28;20053;-69
2022/06/26 11:08:31;;;;;;;4.45;3.05;;;22.00;99.90;;;;;;4997315;28;20123;-69
2022/06/26 11:11:19;;;;;;;3.67;3.00;;;22.10;99.90;;;;;;5008170;28;20122;-69
2022/06/26 11:13:51;;;;;;;4.22;2.97;;;22.10;99.90;;;;;;5008078;28;20107;-69
2022/06/26 11:16:17;;;;;;;4.82;2.58;;;22.10;99.90;;;;;;5005403;28;20069;-69
2022/06/26 11:18:42;;;;;;;;;;;22.00;99.90;;;;;;5010091;28;20069;-69
2022/06/26 11:21:08;;;;;;;5.15;2.63;;;22.00;99.90;;;;;;5009580;28;19960;-69
2022/06/26 11:23:36;;;;;;;;;;;22.00;99.90;;;;;;4999108;28;20046;-69
2022/06/26 11:26:08;;;;;;;3.90;2.42;;;22.00;99.90;;;;;;5013489;28;20003;-69
2022/06/26 11:28:42;;;;;;;3.92;2.75;;;22.00;99.90;;;;;;5005654;28;20503;-69
2022/06/26 11:31:20;;;;;;;5.45;2.15;;;22.00;99.90;;;;;;4991760;28;20038;-69
2022/06/26 11:33:46;;;;;;;3.67;2.17;;;21.90;99.90;;;;;;4986520;28;20033;-69
2022/06/26 11:36:12;;;;;;;;;;;21.80;99.90;;;;;;5003862;28;20460;-69
2022/06/26 11:38:39;;;;;;;2.45;1.90;;;21.80;99.90;;;;;;5009071;28;19918;-69
2022/06/26 11:41:08;;;;;;;2.30;1.40;;;21.80;99.90;;;;;;5004470;28;20441;-69
2022/06/26 11:43:34;;;;;;;4.38;1.70;;;21.80;99.90;;;;;;4995331;28;20495;-69
2022/06/26 11:46:03;;;;;;;2.88;1.80;;;21.90;99.90;;;;;;5020224;28;20052;-69
2022/06/26 11:48:29;;;;;;;5.25;1.90;;;21.90;99.90;;;;;;5026430;28;20124;-69
2022/06/26 11:50:56;;;;;;;;;;;22.00;99.90;;;;;;5017019;28;20498;-69
2022/06/26 11:53:21;;;;;;;5.80;1.93;;;22.00;99.90;;;;;;5008153;28;19918;-70
2022/06/26 11:55:49;;;;;;;;;;;22.10;99.90;;;;;;5009230;28;20660;-69
2022/06/26 11:58:16;;;;;;;3.97;1.90;;;22.00;99.90;;;;;;5004077;28;20238;-69
2022/06/26 12:00:43;;;;;;;6.40;2.78;;;22.00;99.90;;;;;;5004447;28;20048;-69
2022/06/26 12:03:11;;;;;;;7.53;2.70;;;22.00;99.90;;;;;;4989687;28;20465;-69
2022/06/26 12:05:45;;;;;;;3.95;2.55;;;22.10;99.90;;;;;;5008248;28;20524;-69
2022/06/26 12:08:19;;;;;;;4.45;2.47;;;22.10;99.90;;;;;;4996392;28;20487;-69
2022/06/26 12:10:52;;;;;;;5.25;2.20;;;22.10;99.90;;;;;;5006458;28;20034;-70
2022/06/26 12:13:29;;;;;;;3.30;2.25;;;22.20;99.90;;;;;;5007909;28;20038;-69
2022/06/26 12:16:07;;;;;;;4.95;2.65;;;22.20;99.90;;;;;;5007462;28;20187;-69
2022/06/26 12:18:38;;;;;;;7.03;4.18;;;22.20;99.90;;;;;;5024127;28;20489;-69
2022/06/26 12:21:15;;;;;;;6.03;3.72;;;22.10;99.90;;;;;;5027144;28;20439;-69
2022/06/26 12:23:43;;;;;;;5.68;3.75;;;22.10;99.90;;;;;;5026135;28;20131;-69
2022/06/26 12:26:10;;;;;;;6.50;3.95;;;22.00;99.90;;;;;;5005837;28;20053;-69
2022/06/26 12:28:50;;;;;;;5.93;3.83;;;21.90;99.90;;;;;;5007259;28;20088;-69
2022/06/26 12:31:17;;;;;;;6.95;3.35;;;21.80;99.90;;;;;;5023931;28;20121;-69
2022/06/26 12:33:43;;;;;;;6.15;3.05;;;21.70;99.90;;;;;;5006096;28;20042;-69
2022/06/26 12:36:09;;;;;;;5.93;3.00;;;21.70;99.90;;;;;;5007815;28;20042;-69
2022/06/26 12:38:36;;;;;;;;;;;21.60;99.90;;;;;;5008158;28;20068;-68
2022/06/26 12:41:03;;;;;;;3.13;1.90;;;21.60;99.90;;;;;;5007916;28;19925;-69
2022/06/26 12:43:29;;;;;;;2.58;1.70;;;21.60;99.90;;;;;;4990068;28;20057;-69
2022/06/26 12:45:55;;;;;;;;;;;21.60;99.90;;;;;;4990586;28;20100;-69
2022/06/26 12:48:20;;;;;;;2.92;1.90;;;21.50;99.90;;;;;;5008025;28;19960;-69
2022/06/26 12:50:46;;;;;;;3.28;1.95;;;21.50;99.90;;;;;;5004129;28;20068;-68
2022/06/26 12:53:11;;;;;;;;;;;21.50;99.90;;;;;;4995387;28;20034;-68
2022/06/26 12:55:37;;;;;;;2.72;2.15;;;21.60;99.90;;;;;;5004822;28;19963;-69
2022/06/26 12:58:03;;;;;;;3.10;2.33;;;21.60;99.90;;;;;;5006483;28;20486;-69
2022/06/26 13:00:29;;;;;;;;;;;21.70;99.90;;;;;;5003838;28;20145;-68
2022/06/26 13:02:54;;;;;;;3.30;2.13;;;21.70;99.90;;;;;;5022774;28;19991;-69